createdAt,value
2017-09-08T00:00:57.287Z,8.70
2017-09-08T00:03:23.734Z,8.80
2017-09-08T00:05:50.182Z,8.90
2017-09-08T00:08:16.642Z,9.00
2017-09-08T00:10:43.106Z,9.00
2017-09-08T00:13:09.603Z,8.70
2017-09-08T00:15:36.017Z,8.60
2017-09-08T00:18:02.437Z,8.50
2017-09-08T00:20:28.904Z,8.60
2017-09-08T00:22:56.087Z,8.40
2017-09-08T00:25:22.564Z,8.40
2017-09-08T00:27:48.969Z,8.50
2017-09-08T00:30:15.414Z,8.30
2017-09-08T00:32:41.894Z,8.50
2017-09-08T00:35:09.054Z,8.70
2017-09-08T00:37:36.252Z,8.90
2017-09-08T00:40:02.729Z,8.80
2017-09-08T00:42:29.933Z,8.60
2017-09-08T00:44:56.374Z,8.50
2017-09-08T00:47:22.808Z,8.60
2017-09-08T00:49:49.241Z,8.70
2017-09-08T00:52:15.698Z,8.80
2017-09-08T00:54:42.221Z,8.90
2017-09-08T00:57:08.698Z,9.00
2017-09-08T00:59:35.189Z,9.00
2017-09-08T01:02:01.644Z,9.00
2017-09-08T01:04:28.850Z,8.90
2017-09-08T01:06:55.291Z,8.80
2017-09-08T01:09:21.735Z,8.80
2017-09-08T01:11:48.202Z,8.70
2017-09-08T01:14:15.440Z,8.30
2017-09-08T01:16:42.646Z,8.40
2017-09-08T01:19:09.193Z,8.40
2017-09-08T01:21:35.681Z,8.50
2017-09-08T01:24:02.858Z,8.80
2017-09-08T01:26:29.265Z,8.70
2017-09-08T01:28:55.736Z,8.80
2017-09-08T01:31:22.165Z,8.70
2017-09-08T01:33:48.617Z,8.80
2017-09-08T01:36:15.074Z,8.70
2017-09-08T01:38:41.525Z,8.90
2017-09-08T01:41:07.974Z,8.90
2017-09-08T01:43:34.406Z,8.60
2017-09-08T01:46:00.873Z,8.60
2017-09-08T01:48:27.321Z,8.60
2017-09-08T01:50:53.741Z,8.60
2017-09-08T01:53:20.157Z,8.70
2017-09-08T01:55:46.634Z,8.60
2017-09-08T01:58:13.805Z,8.20
2017-09-08T02:00:40.987Z,8.20
2017-09-08T02:03:07.453Z,8.20
2017-09-08T02:05:33.998Z,8.30
2017-09-08T02:08:00.405Z,8.30
2017-09-08T02:10:26.876Z,8.40
2017-09-08T02:12:53.371Z,8.50
2017-09-08T02:15:19.853Z,8.50
2017-09-08T02:17:47.066Z,8.60
2017-09-08T02:20:13.533Z,8.50
2017-09-08T02:22:40.750Z,8.60
2017-09-08T02:25:07.182Z,8.60
2017-09-08T02:27:33.631Z,8.50
2017-09-08T02:30:00.807Z,8.50
2017-09-08T02:32:27.978Z,8.50
2017-09-08T02:34:55.158Z,8.60
2017-09-08T02:37:21.569Z,8.60
2017-09-08T02:39:47.996Z,8.60
2017-09-08T02:42:14.441Z,8.60
2017-09-08T02:44:40.915Z,8.60
2017-09-08T02:47:07.347Z,8.60
2017-09-08T02:49:33.749Z,8.60
2017-09-08T02:52:00.169Z,8.70
2017-09-08T02:54:26.609Z,8.70
2017-09-08T02:56:53.089Z,8.60
2017-09-08T02:59:19.569Z,8.70
2017-09-08T03:01:46.009Z,8.60
2017-09-08T03:04:12.474Z,8.70
2017-09-08T03:06:38.954Z,8.70
2017-09-08T03:09:05.394Z,8.70
2017-09-08T03:11:31.801Z,8.80
2017-09-08T03:13:58.989Z,8.80
2017-09-08T03:16:25.416Z,8.80
2017-09-08T03:18:51.872Z,8.70
2017-09-08T03:21:18.383Z,8.70
2017-09-08T03:23:44.820Z,8.60
2017-09-08T03:26:11.241Z,8.70
2017-09-08T03:28:37.670Z,8.70
2017-09-08T03:31:04.127Z,8.70
2017-09-08T03:33:30.557Z,8.70
2017-09-08T03:35:56.981Z,8.70
2017-09-08T03:38:23.426Z,8.70
2017-09-08T03:40:49.841Z,8.70
2017-09-08T03:43:16.282Z,8.70
2017-09-08T03:45:42.730Z,8.70
2017-09-08T03:48:09.206Z,8.60
2017-09-08T03:50:35.634Z,8.70
2017-09-08T03:53:02.822Z,8.60
2017-09-08T03:55:29.263Z,8.60
2017-09-08T03:57:55.676Z,8.70
2017-09-08T04:00:22.836Z,8.70
2017-09-08T04:02:49.302Z,8.80
2017-09-08T04:05:15.738Z,8.80
2017-09-08T04:07:42.998Z,8.80
2017-09-08T04:10:09.470Z,8.70
2017-09-08T04:12:35.898Z,8.80
2017-09-08T04:15:03.046Z,8.80
2017-09-08T04:17:29.518Z,8.80
2017-09-08T04:19:55.994Z,8.80
2017-09-08T04:22:23.189Z,8.70
2017-09-08T04:24:49.613Z,8.70
2017-09-08T04:27:16.039Z,8.80
2017-09-08T04:29:43.266Z,8.80
2017-09-08T04:32:09.742Z,8.80
2017-09-08T04:34:36.150Z,8.80
2017-09-08T04:37:02.584Z,8.80
2017-09-08T04:39:29.761Z,8.80
2017-09-08T04:41:56.169Z,8.80
2017-09-08T04:44:22.641Z,8.80
2017-09-08T04:46:49.053Z,8.80
2017-09-08T04:49:15.481Z,8.80
2017-09-08T04:51:41.909Z,8.80
2017-09-08T04:54:08.392Z,8.90
2017-09-08T04:56:35.601Z,8.90
2017-09-08T04:59:02.057Z,8.80
2017-09-08T05:01:28.473Z,8.90
2017-09-08T05:03:54.925Z,8.80
2017-09-08T05:06:21.379Z,8.90
2017-09-08T05:08:47.802Z,8.80
2017-09-08T05:11:14.235Z,8.90
2017-09-08T05:13:40.773Z,9.00
2017-09-08T05:16:07.218Z,8.90
2017-09-08T05:18:34.449Z,9.00
2017-09-08T05:21:00.905Z,9.00
2017-09-08T05:23:27.413Z,9.00
2017-09-08T05:25:53.861Z,9.10
2017-09-08T05:28:21.074Z,9.20
2017-09-08T05:30:47.537Z,9.20
2017-09-08T05:33:13.965Z,9.20
2017-09-08T05:35:40.423Z,9.40
2017-09-08T05:38:06.863Z,9.50
2017-09-08T05:40:34.041Z,9.70
2017-09-08T05:43:00.516Z,9.70
2017-09-08T05:45:26.944Z,9.80
2017-09-08T05:47:53.390Z,10.00
2017-09-08T05:50:20.601Z,10.30
2017-09-08T05:52:47.115Z,10.30
2017-09-08T05:55:13.573Z,10.50
2017-09-08T05:57:40.002Z,10.60
2017-09-08T06:00:06.413Z,10.70
2017-09-08T06:02:32.920Z,10.90
2017-09-08T06:04:59.397Z,11.00
2017-09-08T06:07:25.806Z,11.10
2017-09-08T06:09:52.992Z,11.30
2017-09-08T06:12:19.462Z,11.30
2017-09-08T06:14:45.929Z,11.30
2017-09-08T06:17:13.112Z,11.50
2017-09-08T06:19:39.534Z,11.50
2017-09-08T06:22:06.001Z,11.70
2017-09-08T06:24:33.146Z,11.80
2017-09-08T06:27:01.192Z,11.80
2017-09-08T06:29:27.690Z,12.00
2017-09-08T06:31:54.143Z,12.00
2017-09-08T06:34:21.425Z,12.20
2017-09-08T06:36:47.850Z,12.20
2017-09-08T06:39:14.276Z,12.30
2017-09-08T06:41:40.766Z,12.60
2017-09-08T06:44:07.930Z,12.90
2017-09-08T06:46:35.144Z,13.10
2017-09-08T06:49:01.572Z,13.00
2017-09-08T06:51:28.802Z,13.20
2017-09-08T06:53:55.678Z,13.30
2017-09-08T06:56:22.148Z,13.40
2017-09-08T06:58:48.661Z,13.40
2017-09-08T07:01:15.127Z,13.60
2017-09-08T07:03:41.549Z,13.80
2017-09-08T07:06:08.014Z,13.70
2017-09-08T07:08:34.459Z,13.60
2017-09-08T07:11:00.901Z,13.50
2017-09-08T07:13:27.353Z,13.60
2017-09-08T07:15:53.775Z,13.60
2017-09-08T07:18:20.992Z,13.40
2017-09-08T07:20:47.469Z,13.40
2017-09-08T07:23:14.652Z,13.40
2017-09-08T07:25:41.133Z,13.40
2017-09-08T07:28:08.338Z,13.60
2017-09-08T07:30:35.528Z,13.60
2017-09-08T07:33:02.002Z,13.50
2017-09-08T07:35:28.453Z,13.60
2017-09-08T07:37:54.926Z,13.50
2017-09-08T07:40:21.383Z,13.60
2017-09-08T07:42:47.899Z,13.60
2017-09-08T07:45:14.359Z,13.60
2017-09-08T07:47:40.782Z,13.70
2017-09-08T07:50:07.217Z,13.70
2017-09-08T07:52:33.650Z,13.70
2017-09-08T07:55:00.871Z,13.80
2017-09-08T07:57:27.562Z,13.80
2017-09-08T07:59:54.729Z,13.80
2017-09-08T08:02:21.897Z,13.90
2017-09-08T08:04:48.335Z,13.90
2017-09-08T08:07:14.759Z,13.90
2017-09-08T08:09:41.216Z,13.90
2017-09-08T08:12:07.707Z,13.80
2017-09-08T08:14:34.153Z,13.80
2017-09-08T08:17:00.597Z,13.80
2017-09-08T08:19:27.050Z,13.80
2017-09-08T08:21:53.529Z,13.80
2017-09-08T08:24:20.682Z,13.90
2017-09-08T08:26:47.861Z,14.00
2017-09-08T08:29:14.309Z,14.00
2017-09-08T08:31:40.761Z,14.20
2017-09-08T08:34:07.197Z,14.30
2017-09-08T08:36:33.643Z,14.50
2017-09-08T08:39:00.313Z,14.60
2017-09-08T08:41:27.469Z,14.70
2017-09-08T08:43:53.915Z,14.70
2017-09-08T08:46:20.365Z,14.70
2017-09-08T08:48:46.865Z,14.90
2017-09-08T08:51:13.257Z,15.00
2017-09-08T08:53:39.689Z,15.00
2017-09-08T08:56:06.896Z,14.90
2017-09-08T08:58:33.363Z,14.90
2017-09-08T09:00:59.795Z,15.00
2017-09-08T09:03:26.258Z,14.90
2017-09-08T09:05:52.725Z,14.80
2017-09-08T09:08:19.157Z,14.90
2017-09-08T09:10:45.611Z,14.90
2017-09-08T09:13:12.049Z,14.90
2017-09-08T09:15:38.526Z,14.90
2017-09-08T09:18:04.961Z,15.00
2017-09-08T09:20:32.129Z,15.10
2017-09-08T09:22:58.626Z,15.10
2017-09-08T09:25:25.814Z,15.50
2017-09-08T09:27:52.329Z,15.40
2017-09-08T09:30:19.482Z,15.90
2017-09-08T09:32:46.665Z,15.80
2017-09-08T09:35:13.094Z,15.80
2017-09-08T09:37:39.564Z,15.90
2017-09-08T09:40:06.793Z,16.30
2017-09-08T09:42:33.202Z,16.20
2017-09-08T09:44:59.646Z,16.30
2017-09-08T09:47:26.282Z,16.20
2017-09-08T09:49:52.688Z,16.10
2017-09-08T09:52:19.263Z,16.20
2017-09-08T09:54:46.818Z,16.30
2017-09-08T09:57:13.266Z,16.20
2017-09-08T09:59:40.221Z,16.40
2017-09-08T10:02:06.672Z,16.80
2017-09-08T10:04:33.862Z,17.10
2017-09-08T10:07:00.415Z,17.10
2017-09-08T10:09:26.862Z,17.10
2017-09-08T10:11:53.341Z,17.00
2017-09-08T10:14:20.540Z,17.70
2017-09-08T10:16:47.093Z,17.70
2017-09-08T10:19:13.518Z,18.30
2017-09-08T10:21:39.950Z,18.50
2017-09-08T10:24:06.422Z,18.60
2017-09-08T10:26:33.618Z,18.50
2017-09-08T10:29:00.130Z,18.50
2017-09-08T10:31:26.578Z,18.40
2017-09-08T10:33:53.025Z,18.30
2017-09-08T10:36:19.512Z,18.20
2017-09-08T10:38:46.689Z,18.20
2017-09-08T10:41:13.191Z,18.20
2017-09-08T10:43:40.346Z,18.30
2017-09-08T10:46:07.491Z,18.40
2017-09-08T10:48:34.668Z,18.50
2017-09-08T10:51:01.104Z,18.50
2017-09-08T10:53:27.555Z,18.40
2017-09-08T10:55:53.969Z,18.30
2017-09-08T10:58:20.425Z,18.40
2017-09-08T11:00:46.894Z,18.60
2017-09-08T11:03:13.357Z,18.70
2017-09-08T11:05:39.813Z,18.70
2017-09-08T11:08:06.274Z,18.70
2017-09-08T11:10:32.743Z,18.70
2017-09-08T11:12:59.205Z,18.50
2017-09-08T11:15:25.654Z,18.40
2017-09-08T11:17:52.077Z,18.40
2017-09-08T11:20:18.592Z,18.60
2017-09-08T11:22:45.050Z,18.70
2017-09-08T11:25:11.514Z,18.70
2017-09-08T11:27:38.709Z,19.00
2017-09-08T11:30:05.139Z,19.00
2017-09-08T11:32:37.792Z,19.20
2017-09-08T11:35:10.941Z,19.50
2017-09-08T11:37:37.416Z,19.50
2017-09-08T11:40:04.618Z,19.60
2017-09-08T11:42:31.126Z,19.60
2017-09-08T11:44:57.542Z,19.30
2017-09-08T11:47:24.734Z,19.30
2017-09-08T11:49:51.178Z,19.30
2017-09-08T11:52:17.631Z,19.30
2017-09-08T11:54:44.078Z,19.30
2017-09-08T11:57:10.537Z,19.20
2017-09-08T11:59:36.982Z,19.30
2017-09-08T12:02:03.472Z,19.20
2017-09-08T12:04:30.047Z,19.20
2017-09-08T12:06:56.466Z,19.20
2017-09-08T12:09:23.605Z,19.20
2017-09-08T12:11:50.795Z,19.30
2017-09-08T12:14:17.205Z,19.20
2017-09-08T12:16:44.392Z,19.20
2017-09-08T12:19:10.800Z,19.30
2017-09-08T12:21:37.284Z,19.30
2017-09-08T12:24:03.894Z,19.30
2017-09-08T12:26:30.326Z,19.20
2017-09-08T12:28:56.782Z,19.10
2017-09-08T12:31:23.226Z,19.20
2017-09-08T12:33:49.709Z,19.30
2017-09-08T12:36:16.175Z,19.50
2017-09-08T12:38:42.668Z,19.60
2017-09-08T12:41:09.830Z,19.70
2017-09-08T12:43:37.057Z,19.50
2017-09-08T12:46:04.238Z,19.50
2017-09-08T12:48:30.737Z,19.40
2017-09-08T12:50:57.197Z,19.50
2017-09-08T12:53:23.655Z,19.50
2017-09-08T12:55:50.097Z,19.70
2017-09-08T12:58:17.313Z,19.60
2017-09-08T13:00:44.055Z,19.50
2017-09-08T13:03:10.474Z,19.70
2017-09-08T13:05:36.904Z,19.60
2017-09-08T13:08:04.085Z,19.50
2017-09-08T13:10:30.533Z,19.50
2017-09-08T13:12:56.945Z,19.50
2017-09-08T13:15:23.421Z,19.70
2017-09-08T13:17:49.901Z,19.80
2017-09-08T13:20:16.349Z,19.60
2017-09-08T13:22:42.801Z,19.50
2017-09-08T13:25:09.223Z,19.50
2017-09-08T13:27:35.704Z,19.40
2017-09-08T13:30:02.160Z,19.40
2017-09-08T13:32:28.579Z,19.40
2017-09-08T13:34:55.780Z,19.30
2017-09-08T13:37:22.206Z,19.30
2017-09-08T13:39:48.664Z,19.40
2017-09-08T13:42:15.097Z,19.40
2017-09-08T13:44:42.281Z,19.20
2017-09-08T13:47:09.549Z,19.30
2017-09-08T13:49:35.952Z,19.30
2017-09-08T13:52:03.118Z,19.30
2017-09-08T13:54:29.621Z,19.30
2017-09-08T13:56:56.018Z,19.30
2017-09-08T13:59:22.468Z,19.30
2017-09-08T14:01:48.950Z,19.40
2017-09-08T14:04:15.433Z,19.20
2017-09-08T14:06:41.898Z,19.20
2017-09-08T14:09:09.071Z,19.30
2017-09-08T14:11:36.233Z,19.40
2017-09-08T14:14:02.877Z,19.30
2017-09-08T14:16:29.317Z,19.30
2017-09-08T14:18:55.741Z,19.30
2017-09-08T14:21:22.170Z,19.40
2017-09-08T14:23:48.609Z,19.30
2017-09-08T14:26:15.122Z,19.30
2017-09-08T14:28:41.557Z,19.40
2017-09-08T14:31:08.014Z,19.30
2017-09-08T14:33:34.435Z,19.20
2017-09-08T14:36:00.915Z,19.30
2017-09-08T14:38:27.618Z,19.20
2017-09-08T14:40:54.094Z,19.10
2017-09-08T14:43:20.542Z,19.00
2017-09-08T14:45:47.716Z,19.00
2017-09-08T14:48:14.157Z,18.90
2017-09-08T14:50:40.615Z,18.90
2017-09-08T14:53:07.031Z,18.90
2017-09-08T14:55:33.483Z,18.80
2017-09-08T14:57:59.920Z,18.80
2017-09-08T15:00:26.342Z,18.80
2017-09-08T15:02:52.800Z,18.70
2017-09-08T15:05:19.244Z,18.60
2017-09-08T15:07:46.449Z,18.60
2017-09-08T15:10:12.850Z,18.60
2017-09-08T15:12:40.030Z,18.70
2017-09-08T15:15:06.462Z,18.60
2017-09-08T15:17:32.915Z,18.50
2017-09-08T15:19:59.350Z,18.50
2017-09-08T15:22:26.569Z,18.40
2017-09-08T15:24:53.048Z,18.40
2017-09-08T15:27:19.503Z,18.30
2017-09-08T15:29:45.980Z,18.20
2017-09-08T15:32:12.397Z,18.10
2017-09-08T15:34:38.878Z,18.10
2017-09-08T15:37:05.302Z,17.90
2017-09-08T15:39:31.723Z,17.90
2017-09-08T15:41:58.164Z,17.90
2017-09-08T15:44:24.641Z,17.70
2017-09-08T15:46:51.826Z,17.80
2017-09-08T15:49:18.241Z,17.80
2017-09-08T15:51:44.650Z,17.90
2017-09-08T15:54:11.870Z,17.70
2017-09-08T15:56:38.337Z,17.70
2017-09-08T15:59:04.738Z,17.60
2017-09-08T16:01:31.182Z,17.60
2017-09-08T16:03:57.658Z,17.40
2017-09-08T16:06:24.129Z,17.50
2017-09-08T16:08:50.545Z,17.50
2017-09-08T16:11:17.021Z,17.30
2017-09-08T16:13:43.428Z,17.30
2017-09-08T16:16:09.984Z,17.10
2017-09-08T16:18:36.443Z,17.20
2017-09-08T16:21:03.605Z,17.10
2017-09-08T16:23:30.047Z,17.10
2017-09-08T16:25:56.566Z,17.00
2017-09-08T16:28:22.980Z,17.10
2017-09-08T16:30:50.186Z,17.00
2017-09-08T16:33:16.677Z,17.00
2017-09-08T16:35:43.869Z,16.90
2017-09-08T16:38:10.357Z,16.90
2017-09-08T16:40:36.863Z,17.00
2017-09-08T16:43:03.273Z,17.00
2017-09-08T16:45:29.693Z,17.00
2017-09-08T16:47:56.146Z,17.10
2017-09-08T16:50:22.575Z,17.00
2017-09-08T16:52:49.822Z,17.00
2017-09-08T16:55:16.309Z,16.90
2017-09-08T16:57:42.761Z,16.90
2017-09-08T17:00:09.983Z,16.80
2017-09-08T17:02:36.497Z,16.80
2017-09-08T17:05:03.027Z,16.70
2017-09-08T17:07:29.510Z,16.60
2017-09-08T17:09:55.974Z,16.60
2017-09-08T17:12:23.217Z,16.40
2017-09-08T17:14:49.634Z,16.40
2017-09-08T17:17:16.104Z,16.20
2017-09-08T17:19:43.343Z,15.80
2017-09-08T17:22:09.781Z,15.90
2017-09-08T17:24:36.258Z,15.80
2017-09-08T17:27:03.474Z,15.50
2017-09-08T17:29:29.905Z,15.50
2017-09-08T17:31:56.726Z,15.60
2017-09-08T17:34:23.179Z,15.40
2017-09-08T17:36:49.590Z,15.40
2017-09-08T17:39:16.038Z,15.30
2017-09-08T17:41:42.469Z,15.30
2017-09-08T17:44:08.927Z,15.30
2017-09-08T17:46:35.387Z,15.40
2017-09-08T17:49:01.872Z,15.50
2017-09-08T17:51:28.339Z,15.50
2017-09-08T17:53:54.831Z,15.60
2017-09-08T17:56:21.310Z,15.70
2017-09-08T17:58:48.509Z,15.60
2017-09-08T18:01:15.006Z,15.60
2017-09-08T18:03:42.198Z,15.20
2017-09-08T18:06:08.619Z,15.20
2017-09-08T18:08:35.081Z,15.00
2017-09-08T18:11:01.542Z,15.00
2017-09-08T18:13:27.960Z,14.50
2017-09-08T18:15:55.189Z,14.20
2017-09-08T18:18:21.626Z,14.20
2017-09-08T18:20:48.074Z,14.20
2017-09-08T18:23:14.558Z,14.30
2017-09-08T18:25:41.018Z,14.00
2017-09-08T18:28:07.517Z,14.00
2017-09-08T18:30:33.947Z,13.90
2017-09-08T18:33:00.431Z,13.90
2017-09-08T18:35:26.981Z,14.00
2017-09-08T18:37:53.423Z,14.00
2017-09-08T18:40:19.882Z,13.90
2017-09-08T18:42:46.330Z,13.50
2017-09-08T18:45:12.806Z,13.20
2017-09-08T18:47:39.989Z,12.90
2017-09-08T18:50:07.228Z,12.90
2017-09-08T18:52:34.413Z,12.90
2017-09-08T18:55:00.903Z,12.90
2017-09-08T18:57:27.353Z,12.90
2017-09-08T18:59:54.590Z,12.80
2017-09-08T19:02:21.056Z,12.80
2017-09-08T19:04:47.523Z,12.80
2017-09-08T19:07:13.992Z,12.80
2017-09-08T19:09:40.508Z,13.00
2017-09-08T19:12:06.953Z,13.00
2017-09-08T19:14:34.167Z,13.00
2017-09-08T19:17:02.858Z,13.00
2017-09-08T19:19:30.073Z,13.10
2017-09-08T19:21:57.262Z,13.20
2017-09-08T19:24:23.730Z,13.20
2017-09-08T19:26:50.185Z,13.30
2017-09-08T19:29:16.630Z,13.20
2017-09-08T19:31:43.119Z,13.10
2017-09-08T19:34:09.609Z,12.80
2017-09-08T19:36:36.079Z,12.70
2017-09-08T19:39:02.603Z,12.60
2017-09-08T19:41:29.116Z,12.40
2017-09-08T19:43:55.602Z,12.50
2017-09-08T19:46:22.770Z,12.70
2017-09-08T19:48:49.261Z,12.70
2017-09-08T19:51:15.698Z,12.60
2017-09-08T19:53:42.181Z,12.60
2017-09-08T19:56:08.649Z,12.60
2017-09-08T19:58:35.151Z,12.60
2017-09-08T20:01:01.586Z,12.70
2017-09-08T20:03:28.068Z,12.60
2017-09-08T20:05:54.554Z,12.60
2017-09-08T20:08:20.995Z,12.60
2017-09-08T20:10:47.454Z,12.70
2017-09-08T20:13:13.865Z,12.70
2017-09-08T20:15:40.369Z,12.60
2017-09-08T20:18:06.862Z,12.70
2017-09-08T20:33:41.194Z,13.10
2017-09-08T20:36:08.370Z,13.00
2017-09-08T20:38:34.819Z,13.00
2017-09-08T20:41:01.261Z,12.90
2017-09-08T20:43:27.660Z,12.90
2017-09-08T20:45:54.093Z,12.90
2017-09-08T20:48:21.291Z,12.80
2017-09-08T20:50:47.756Z,12.80
2017-09-08T20:53:14.913Z,12.80
2017-09-08T20:55:42.145Z,12.80
2017-09-08T20:58:08.653Z,12.70
2017-09-08T21:00:35.096Z,12.70
2017-09-08T21:03:01.584Z,12.80
2017-09-08T21:05:28.162Z,12.80
2017-09-08T21:07:54.689Z,12.80
2017-09-08T21:10:21.227Z,12.60
2017-09-08T21:12:48.514Z,12.70
2017-09-08T21:15:15.684Z,12.70
2017-09-08T21:17:42.230Z,12.60
2017-09-08T21:20:08.700Z,12.70
2017-09-08T21:22:35.200Z,12.60
2017-09-08T21:25:01.677Z,12.60
2017-09-08T21:27:28.130Z,12.60
2017-09-08T21:29:55.314Z,12.60
2017-09-08T21:32:22.553Z,12.60
2017-09-08T21:34:49.862Z,12.60
2017-09-08T21:37:16.334Z,12.50
2017-09-08T21:39:43.513Z,12.50
2017-09-08T21:42:10.096Z,12.50
2017-09-08T21:44:36.573Z,12.50
2017-09-08T21:47:03.028Z,12.50
2017-09-08T21:49:29.498Z,12.60
2017-09-08T21:51:55.922Z,12.50
2017-09-08T21:54:22.338Z,12.50
2017-09-08T21:56:49.540Z,12.40
2017-09-08T21:59:16.692Z,12.40
2017-09-08T22:01:43.878Z,12.40
2017-09-08T22:04:10.423Z,12.40
2017-09-08T22:06:36.906Z,12.40
2017-09-08T22:09:03.397Z,12.50
2017-09-08T22:11:29.853Z,12.50
2017-09-08T22:13:57.090Z,12.60
2017-09-08T22:16:24.282Z,12.60
2017-09-08T22:18:51.457Z,12.60
2017-09-08T22:21:17.889Z,12.50
2017-09-08T22:23:44.312Z,12.60
2017-09-08T22:26:10.763Z,12.60
2017-09-08T22:28:37.213Z,12.60
2017-09-08T22:31:03.659Z,12.60
2017-09-08T22:33:30.085Z,12.50
2017-09-08T22:35:56.555Z,12.50
2017-09-08T22:38:23.713Z,12.60
2017-09-08T22:40:50.886Z,12.60
2017-09-08T22:43:17.357Z,12.50
2017-09-08T22:45:43.786Z,12.60
2017-09-08T22:48:10.965Z,12.60
2017-09-08T22:50:37.378Z,12.60
2017-09-08T22:53:03.802Z,12.60
2017-09-08T22:55:30.234Z,12.70
2017-09-08T22:57:56.663Z,12.70
2017-09-08T23:00:23.085Z,12.70
2017-09-08T23:02:49.573Z,12.70
2017-09-08T23:05:16.046Z,12.70
2017-09-08T23:07:42.505Z,12.80
2017-09-08T23:10:08.953Z,12.80
2017-09-08T23:12:35.409Z,12.80
2017-09-08T23:15:02.577Z,12.90
2017-09-08T23:17:29.011Z,12.90
2017-09-08T23:19:55.512Z,12.90
2017-09-08T23:22:22.670Z,12.90
2017-09-08T23:24:49.830Z,12.90
2017-09-08T23:27:16.310Z,12.80
2017-09-08T23:29:42.723Z,12.90
2017-09-08T23:32:09.130Z,12.90
2017-09-08T23:34:36.282Z,12.80
2017-09-08T23:37:02.729Z,12.80
2017-09-08T23:39:29.154Z,12.90
2017-09-08T23:41:55.645Z,12.90
2017-09-08T23:44:22.083Z,12.90
2017-09-08T23:46:49.291Z,12.90
2017-09-08T23:49:15.746Z,12.90
2017-09-08T23:51:42.194Z,12.90
2017-09-08T23:54:08.635Z,12.90
2017-09-08T23:56:35.029Z,13.00
2017-09-08T23:59:01.559Z,12.90
